Terminal Aerodrome Forecast
Issued by NWS

Home | Current Version | Previous Version | Text Only | Print | Product List | Glossary On
Versions: 1 2 3 4 5 6 7 8 9 10 11 12 13 14
000
FTUS42 KMLB 212300
TAFISM
TAF
KISM 212322Z 2200/2224 03008KT P6SM FEW040 OVC100
     FM220600 03007KT P6SM VCSH SCT035 OVC090
     FM221400 07013G18KT P6SM VCSH OVC030
      AMD NOT SKED 2203/2212=

USA.gov is the U.S. government's official web portal to all federal, state and local government web resources and services.